sensor_id;sensor_type;location;lat;lon;timestamp;P1;durP1;ratioP1;P2;durP2;ratioP2
57087;SDS011;42965;52.846;6.614;2023-12-29T00:02:23;13.45;;;2.88;;
57087;SDS011;42965;52.846;6.614;2023-12-29T00:04:49;12.02;;;3.10;;
57087;SDS011;42965;52.846;6.614;2023-12-29T00:07:16;8.48;;;2.42;;
57087;SDS011;42965;52.846;6.614;2023-12-29T00:09:42;10.05;;;2.97;;
57087;SDS011;42965;52.846;6.614;2023-12-29T00:12:08;10.80;;;3.17;;
57087;SDS011;42965;52.846;6.614;2023-12-29T00:14:38;10.77;;;3.22;;
57087;SDS011;42965;52.846;6.614;2023-12-29T00:17:05;14.00;;;3.20;;
57087;SDS011;42965;52.846;6.614;2023-12-29T00:19:31;12.93;;;3.08;;
57087;SDS011;42965;52.846;6.614;2023-12-29T00:21:57;12.95;;;3.10;;
57087;SDS011;42965;52.846;6.614;2023-12-29T00:24:26;10.73;;;3.15;;
57087;SDS011;42965;52.846;6.614;2023-12-29T00:26:52;12.40;;;2.95;;
57087;SDS011;42965;52.846;6.614;2023-12-29T00:29:38;9.95;;;2.65;;
57087;SDS011;42965;52.846;6.614;2023-12-29T00:32:05;9.73;;;2.70;;
57087;SDS011;42965;52.846;6.614;2023-12-29T00:34:31;12.60;;;3.03;;
57087;SDS011;42965;52.846;6.614;2023-12-29T00:36:58;14.60;;;3.08;;
57087;SDS011;42965;52.846;6.614;2023-12-29T00:39:24;15.57;;;3.08;;
57087;SDS011;42965;52.846;6.614;2023-12-29T00:41:54;17.95;;;3.38;;
57087;SDS011;42965;52.846;6.614;2023-12-29T00:44:24;11.75;;;3.33;;
57087;SDS011;42965;52.846;6.614;2023-12-29T00:46:50;13.85;;;3.53;;
57087;SDS011;42965;52.846;6.614;2023-12-29T00:49:16;13.55;;;3.53;;
57087;SDS011;42965;52.846;6.614;2023-12-29T00:51:43;12.48;;;3.45;;
57087;SDS011;42965;52.846;6.614;2023-12-29T00:54:09;14.80;;;4.20;;
57087;SDS011;42965;52.846;6.614;2023-12-29T00:56:36;13.60;;;3.85;;
57087;SDS011;42965;52.846;6.614;2023-12-29T00:59:22;18.23;;;4.55;;
57087;SDS011;42965;52.846;6.614;2023-12-29T01:01:49;15.55;;;4.78;;
57087;SDS011;42965;52.846;6.614;2023-12-29T01:04:15;17.70;;;5.25;;
57087;SDS011;42965;52.846;6.614;2023-12-29T01:06:41;15.13;;;4.47;;
57087;SDS011;42965;52.846;6.614;2023-12-29T01:09:08;14.88;;;5.03;;
57087;SDS011;42965;52.846;6.614;2023-12-29T01:11:36;16.98;;;4.97;;
57087;SDS011;42965;52.846;6.614;2023-12-29T01:14:03;13.45;;;3.72;;
57087;SDS011;42965;52.846;6.614;2023-12-29T01:16:29;16.23;;;4.45;;
57087;SDS011;42965;52.846;6.614;2023-12-29T01:18:55;14.95;;;4.80;;
57087;SDS011;42965;52.846;6.614;2023-12-29T01:21:41;13.48;;;4.68;;
57087;SDS011;42965;52.846;6.614;2023-12-29T01:24:08;20.60;;;5.72;;
57087;SDS011;42965;52.846;6.614;2023-12-29T01:26:37;18.67;;;6.30;;
57087;SDS011;42965;52.846;6.614;2023-12-29T01:29:04;17.00;;;5.20;;
57087;SDS011;42965;52.846;6.614;2023-12-29T01:31:31;16.10;;;4.97;;
57087;SDS011;42965;52.846;6.614;2023-12-29T01:33:58;25.40;;;6.85;;
57087;SDS011;42965;52.846;6.614;2023-12-29T01:36:25;19.65;;;5.47;;
57087;SDS011;42965;52.846;6.614;2023-12-29T01:38:51;18.55;;;5.63;;
57087;SDS011;42965;52.846;6.614;2023-12-29T01:41:20;17.67;;;4.65;;
57087;SDS011;42965;52.846;6.614;2023-12-29T01:46:27;14.75;;;5.13;;
57087;SDS011;42965;52.846;6.614;2023-12-29T01:48:55;15.32;;;4.82;;
57087;SDS011;42965;52.846;6.614;2023-12-29T01:51:23;13.23;;;4.13;;
57087;SDS011;42965;52.846;6.614;2023-12-29T01:53:52;18.63;;;4.15;;
57087;SDS011;42965;52.846;6.614;2023-12-29T01:56:20;17.13;;;4.93;;
57087;SDS011;42965;52.846;6.614;2023-12-29T01:58:48;13.60;;;3.65;;
57087;SDS011;42965;52.846;6.614;2023-12-29T02:01:17;14.20;;;3.83;;
57087;SDS011;42965;52.846;6.614;2023-12-29T02:03:45;12.88;;;4.07;;
57087;SDS011;42965;52.846;6.614;2023-12-29T02:06:11;16.65;;;4.40;;
57087;SDS011;42965;52.846;6.614;2023-12-29T02:08:40;14.25;;;4.43;;
57087;SDS011;42965;52.846;6.614;2023-12-29T02:11:07;17.00;;;4.00;;
57087;SDS011;42965;52.846;6.614;2023-12-29T02:13:33;14.25;;;4.72;;
57087;SDS011;42965;52.846;6.614;2023-12-29T02:16:21;10.77;;;3.25;;
57087;SDS011;42965;52.846;6.614;2023-12-29T02:18:54;14.50;;;4.57;;
57087;SDS011;42965;52.846;6.614;2023-12-29T02:21:23;16.08;;;4.32;;
57087;SDS011;42965;52.846;6.614;2023-12-29T02:23:51;21.60;;;5.05;;
57087;SDS011;42965;52.846;6.614;2023-12-29T02:26:17;13.73;;;4.10;;
57087;SDS011;42965;52.846;6.614;2023-12-29T02:28:50;12.40;;;3.65;;
57087;SDS011;42965;52.846;6.614;2023-12-29T02:31:23;18.30;;;3.92;;
57087;SDS011;42965;52.846;6.614;2023-12-29T02:33:52;12.85;;;4.43;;
57087;SDS011;42965;52.846;6.614;2023-12-29T02:36:40;22.48;;;4.75;;
57087;SDS011;42965;52.846;6.614;2023-12-29T02:39:09;21.38;;;4.07;;
57087;SDS011;42965;52.846;6.614;2023-12-29T02:41:38;12.88;;;3.40;;
57087;SDS011;42965;52.846;6.614;2023-12-29T02:44:05;12.07;;;4.07;;
57087;SDS011;42965;52.846;6.614;2023-12-29T02:46:32;14.75;;;4.15;;
57087;SDS011;42965;52.846;6.614;2023-12-29T02:48:58;16.38;;;4.05;;
57087;SDS011;42965;52.846;6.614;2023-12-29T02:51:25;14.80;;;3.78;;
57087;SDS011;42965;52.846;6.614;2023-12-29T02:53:51;15.27;;;3.70;;
57087;SDS011;42965;52.846;6.614;2023-12-29T02:56:18;11.93;;;2.92;;
57087;SDS011;42965;52.846;6.614;2023-12-29T02:58:44;12.98;;;3.47;;
57087;SDS011;42965;52.846;6.614;2023-12-29T03:01:11;15.10;;;3.90;;
57087;SDS011;42965;52.846;6.614;2023-12-29T03:03:37;19.63;;;3.78;;
57087;SDS011;42965;52.846;6.614;2023-12-29T03:06:06;18.48;;;4.10;;
57087;SDS011;42965;52.846;6.614;2023-12-29T03:08:32;16.95;;;4.68;;
57087;SDS011;42965;52.846;6.614;2023-12-29T03:10:59;20.67;;;4.50;;
57087;SDS011;42965;52.846;6.614;2023-12-29T03:13:26;14.20;;;3.80;;
57087;SDS011;42965;52.846;6.614;2023-12-29T03:15:53;15.90;;;4.30;;
57087;SDS011;42965;52.846;6.614;2023-12-29T03:18:20;11.63;;;3.05;;
57087;SDS011;42965;52.846;6.614;2023-12-29T03:20:46;22.60;;;4.30;;
57087;SDS011;42965;52.846;6.614;2023-12-29T03:23:13;16.40;;;4.43;;
57087;SDS011;42965;52.846;6.614;2023-12-29T03:25:40;15.93;;;4.00;;
57087;SDS011;42965;52.846;6.614;2023-12-29T03:28:07;12.45;;;3.88;;
57087;SDS011;42965;52.846;6.614;2023-12-29T03:30:33;14.70;;;3.92;;
57087;SDS011;42965;52.846;6.614;2023-12-29T03:32:59;14.13;;;3.65;;
57087;SDS011;42965;52.846;6.614;2023-12-29T03:35:26;16.35;;;3.65;;
57087;SDS011;42965;52.846;6.614;2023-12-29T03:37:52;19.52;;;4.57;;
57087;SDS011;42965;52.846;6.614;2023-12-29T03:40:18;15.60;;;3.53;;
57087;SDS011;42965;52.846;6.614;2023-12-29T03:42:45;16.95;;;4.35;;
57087;SDS011;42965;52.846;6.614;2023-12-29T03:45:11;12.93;;;3.47;;
57087;SDS011;42965;52.846;6.614;2023-12-29T03:47:37;11.25;;;3.38;;
57087;SDS011;42965;52.846;6.614;2023-12-29T03:50:04;11.50;;;3.53;;
57087;SDS011;42965;52.846;6.614;2023-12-29T03:52:50;12.85;;;2.67;;
57087;SDS011;42965;52.846;6.614;2023-12-29T03:55:16;12.93;;;3.92;;
57087;SDS011;42965;52.846;6.614;2023-12-29T03:57:42;13.50;;;3.70;;
57087;SDS011;42965;52.846;6.614;2023-12-29T04:00:13;13.13;;;2.72;;
57087;SDS011;42965;52.846;6.614;2023-12-29T04:02:40;14.48;;;3.38;;
57087;SDS011;42965;52.846;6.614;2023-12-29T04:05:08;12.32;;;3.10;;
57087;SDS011;42965;52.846;6.614;2023-12-29T04:07:38;11.32;;;3.28;;
57087;SDS011;42965;52.846;6.614;2023-12-29T04:10:06;14.77;;;3.90;;
57087;SDS011;42965;52.846;6.614;2023-12-29T04:12:34;12.13;;;4.05;;
57087;SDS011;42965;52.846;6.614;2023-12-29T04:15:03;15.57;;;3.55;;
57087;SDS011;42965;52.846;6.614;2023-12-29T04:17:30;18.73;;;4.18;;
57087;SDS011;42965;52.846;6.614;2023-12-29T04:19:56;15.57;;;3.67;;
57087;SDS011;42965;52.846;6.614;2023-12-29T04:22:22;14.15;;;3.72;;
57087;SDS011;42965;52.846;6.614;2023-12-29T04:24:48;13.82;;;3.20;;
57087;SDS011;42965;52.846;6.614;2023-12-29T04:27:14;16.98;;;3.97;;
57087;SDS011;42965;52.846;6.614;2023-12-29T04:29:41;18.83;;;4.07;;
57087;SDS011;42965;52.846;6.614;2023-12-29T04:32:08;17.95;;;4.03;;
57087;SDS011;42965;52.846;6.614;2023-12-29T04:34:36;16.35;;;4.00;;
57087;SDS011;42965;52.846;6.614;2023-12-29T04:37:03;20.25;;;4.13;;
57087;SDS011;42965;52.846;6.614;2023-12-29T04:39:30;20.60;;;4.70;;
57087;SDS011;42965;52.846;6.614;2023-12-29T04:41:57;15.95;;;3.53;;
57087;SDS011;42965;52.846;6.614;2023-12-29T04:44:23;17.88;;;4.05;;
57087;SDS011;42965;52.846;6.614;2023-12-29T04:46:50;20.88;;;5.03;;
57087;SDS011;42965;52.846;6.614;2023-12-29T04:49:16;14.90;;;3.55;;
57087;SDS011;42965;52.846;6.614;2023-12-29T04:51:42;18.58;;;4.45;;
57087;SDS011;42965;52.846;6.614;2023-12-29T04:54:08;18.42;;;3.65;;
57087;SDS011;42965;52.846;6.614;2023-12-29T04:56:34;16.70;;;4.03;;
57087;SDS011;42965;52.846;6.614;2023-12-29T04:59:01;19.25;;;4.72;;
57087;SDS011;42965;52.846;6.614;2023-12-29T05:01:27;20.42;;;4.18;;
57087;SDS011;42965;52.846;6.614;2023-12-29T05:03:53;22.27;;;4.45;;
57087;SDS011;42965;52.846;6.614;2023-12-29T05:06:19;14.63;;;3.53;;
57087;SDS011;42965;52.846;6.614;2023-12-29T05:08:47;15.35;;;3.65;;
57087;SDS011;42965;52.846;6.614;2023-12-29T05:11:13;17.23;;;3.42;;
57087;SDS011;42965;52.846;6.614;2023-12-29T05:13:39;21.40;;;4.35;;
57087;SDS011;42965;52.846;6.614;2023-12-29T05:16:06;22.63;;;4.57;;
57087;SDS011;42965;52.846;6.614;2023-12-29T05:18:32;20.35;;;5.22;;
57087;SDS011;42965;52.846;6.614;2023-12-29T05:20:58;28.02;;;4.10;;
57087;SDS011;42965;52.846;6.614;2023-12-29T05:23:24;21.23;;;4.13;;
57087;SDS011;42965;52.846;6.614;2023-12-29T05:26:12;24.40;;;5.03;;
57087;SDS011;42965;52.846;6.614;2023-12-29T05:28:38;19.85;;;4.50;;
57087;SDS011;42965;52.846;6.614;2023-12-29T05:31:06;18.83;;;4.50;;
57087;SDS011;42965;52.846;6.614;2023-12-29T05:33:32;15.68;;;4.50;;
57087;SDS011;42965;52.846;6.614;2023-12-29T05:35:59;20.08;;;3.42;;
57087;SDS011;42965;52.846;6.614;2023-12-29T05:38:32;20.20;;;3.67;;
57087;SDS011;42965;52.846;6.614;2023-12-29T05:40:59;17.02;;;3.17;;
57087;SDS011;42965;52.846;6.614;2023-12-29T05:43:28;17.48;;;3.70;;
57087;SDS011;42965;52.846;6.614;2023-12-29T05:45:54;14.27;;;3.40;;
57087;SDS011;42965;52.846;6.614;2023-12-29T05:48:20;20.60;;;4.28;;
57087;SDS011;42965;52.846;6.614;2023-12-29T05:50:46;26.88;;;4.53;;
57087;SDS011;42965;52.846;6.614;2023-12-29T05:53:13;18.55;;;4.78;;
57087;SDS011;42965;52.846;6.614;2023-12-29T05:55:40;23.38;;;4.75;;
57087;SDS011;42965;52.846;6.614;2023-12-29T05:58:07;21.00;;;4.43;;
57087;SDS011;42965;52.846;6.614;2023-12-29T06:00:38;21.67;;;4.35;;
57087;SDS011;42965;52.846;6.614;2023-12-29T06:03:25;20.75;;;4.13;;
57087;SDS011;42965;52.846;6.614;2023-12-29T06:05:51;21.85;;;5.78;;
57087;SDS011;42965;52.846;6.614;2023-12-29T06:08:18;23.88;;;4.63;;
57087;SDS011;42965;52.846;6.614;2023-12-29T06:10:45;24.35;;;4.18;;
57087;SDS011;42965;52.846;6.614;2023-12-29T06:13:11;31.00;;;5.50;;
57087;SDS011;42965;52.846;6.614;2023-12-29T06:15:38;23.67;;;5.05;;
57087;SDS011;42965;52.846;6.614;2023-12-29T06:18:07;22.48;;;4.97;;
57087;SDS011;42965;52.846;6.614;2023-12-29T06:20:34;22.38;;;4.53;;
57087;SDS011;42965;52.846;6.614;2023-12-29T06:23:00;21.42;;;4.57;;
57087;SDS011;42965;52.846;6.614;2023-12-29T06:25:26;28.10;;;5.50;;
57087;SDS011;42965;52.846;6.614;2023-12-29T06:28:13;21.25;;;5.05;;
57087;SDS011;42965;52.846;6.614;2023-12-29T06:30:39;27.08;;;5.22;;
57087;SDS011;42965;52.846;6.614;2023-12-29T06:33:06;32.67;;;5.93;;
57087;SDS011;42965;52.846;6.614;2023-12-29T06:35:33;27.55;;;5.25;;
57087;SDS011;42965;52.846;6.614;2023-12-29T06:37:59;29.33;;;5.07;;
57087;SDS011;42965;52.846;6.614;2023-12-29T06:40:25;22.95;;;7.05;;
57087;SDS011;42965;52.846;6.614;2023-12-29T06:42:53;23.33;;;5.63;;
57087;SDS011;42965;52.846;6.614;2023-12-29T06:45:19;26.65;;;5.85;;
57087;SDS011;42965;52.846;6.614;2023-12-29T06:47:45;26.83;;;6.45;;
57087;SDS011;42965;52.846;6.614;2023-12-29T06:50:12;24.27;;;5.25;;
57087;SDS011;42965;52.846;6.614;2023-12-29T06:52:38;28.38;;;5.55;;
57087;SDS011;42965;52.846;6.614;2023-12-29T06:55:06;26.60;;;4.60;;
57087;SDS011;42965;52.846;6.614;2023-12-29T06:57:33;26.75;;;4.93;;
57087;SDS011;42965;52.846;6.614;2023-12-29T06:59:59;32.13;;;5.82;;
57087;SDS011;42965;52.846;6.614;2023-12-29T07:02:25;27.10;;;5.97;;
57087;SDS011;42965;52.846;6.614;2023-12-29T07:04:52;26.88;;;5.53;;
57087;SDS011;42965;52.846;6.614;2023-12-29T07:07:18;28.08;;;5.18;;
57087;SDS011;42965;52.846;6.614;2023-12-29T07:09:45;32.45;;;6.22;;
57087;SDS011;42965;52.846;6.614;2023-12-29T07:12:12;26.83;;;6.15;;
57087;SDS011;42965;52.846;6.614;2023-12-29T07:14:38;28.70;;;5.72;;
57087;SDS011;42965;52.846;6.614;2023-12-29T07:17:07;33.60;;;6.43;;
57087;SDS011;42965;52.846;6.614;2023-12-29T07:19:33;27.98;;;5.70;;
57087;SDS011;42965;52.846;6.614;2023-12-29T07:22:03;22.75;;;5.03;;
57087;SDS011;42965;52.846;6.614;2023-12-29T07:24:34;30.02;;;5.60;;
57087;SDS011;42965;52.846;6.614;2023-12-29T07:27:01;28.48;;;5.40;;
57087;SDS011;42965;52.846;6.614;2023-12-29T07:29:28;34.35;;;6.82;;
57087;SDS011;42965;52.846;6.614;2023-12-29T07:31:54;26.77;;;5.68;;
57087;SDS011;42965;52.846;6.614;2023-12-29T07:34:20;31.42;;;6.10;;
57087;SDS011;42965;52.846;6.614;2023-12-29T07:36:47;28.35;;;5.68;;
57087;SDS011;42965;52.846;6.614;2023-12-29T07:39:13;29.08;;;6.03;;
57087;SDS011;42965;52.846;6.614;2023-12-29T07:41:40;30.77;;;8.00;;
57087;SDS011;42965;52.846;6.614;2023-12-29T07:44:12;35.55;;;6.45;;
57087;SDS011;42965;52.846;6.614;2023-12-29T07:46:39;27.13;;;5.15;;
57087;SDS011;42965;52.846;6.614;2023-12-29T07:49:06;29.38;;;5.82;;
57087;SDS011;42965;52.846;6.614;2023-12-29T07:51:33;26.13;;;5.60;;
57087;SDS011;42965;52.846;6.614;2023-12-29T07:54:19;28.60;;;5.57;;
57087;SDS011;42965;52.846;6.614;2023-12-29T07:56:45;23.88;;;6.03;;
57087;SDS011;42965;52.846;6.614;2023-12-29T07:59:11;25.75;;;6.22;;
57087;SDS011;42965;52.846;6.614;2023-12-29T08:01:38;29.67;;;5.65;;
57087;SDS011;42965;52.846;6.614;2023-12-29T08:04:05;22.67;;;5.47;;
57087;SDS011;42965;52.846;6.614;2023-12-29T08:06:32;27.92;;;6.18;;
57087;SDS011;42965;52.846;6.614;2023-12-29T08:08:58;26.40;;;5.55;;
57087;SDS011;42965;52.846;6.614;2023-12-29T08:11:25;19.75;;;5.28;;
57087;SDS011;42965;52.846;6.614;2023-12-29T08:13:53;23.70;;;5.53;;
57087;SDS011;42965;52.846;6.614;2023-12-29T08:16:20;31.73;;;7.72;;
57087;SDS011;42965;52.846;6.614;2023-12-29T08:18:48;24.17;;;5.47;;
57087;SDS011;42965;52.846;6.614;2023-12-29T08:21:16;23.77;;;5.50;;
57087;SDS011;42965;52.846;6.614;2023-12-29T08:23:47;24.48;;;5.40;;
57087;SDS011;42965;52.846;6.614;2023-12-29T08:26:13;22.80;;;6.72;;
57087;SDS011;42965;52.846;6.614;2023-12-29T08:28:40;26.95;;;5.30;;
57087;SDS011;42965;52.846;6.614;2023-12-29T08:31:07;22.45;;;4.68;;
57087;SDS011;42965;52.846;6.614;2023-12-29T08:33:33;24.23;;;6.22;;
57087;SDS011;42965;52.846;6.614;2023-12-29T08:36:01;27.30;;;5.78;;
57087;SDS011;42965;52.846;6.614;2023-12-29T08:38:29;25.75;;;4.72;;
57087;SDS011;42965;52.846;6.614;2023-12-29T08:40:57;19.10;;;4.68;;
57087;SDS011;42965;52.846;6.614;2023-12-29T08:43:23;23.83;;;4.95;;
57087;SDS011;42965;52.846;6.614;2023-12-29T08:45:50;25.05;;;4.22;;
57087;SDS011;42965;52.846;6.614;2023-12-29T08:48:36;16.95;;;4.68;;
57087;SDS011;42965;52.846;6.614;2023-12-29T08:51:02;23.65;;;6.20;;
57087;SDS011;42965;52.846;6.614;2023-12-29T08:53:29;24.40;;;4.43;;
57087;SDS011;42965;52.846;6.614;2023-12-29T08:55:59;15.55;;;4.15;;
57087;SDS011;42965;52.846;6.614;2023-12-29T08:58:45;17.23;;;4.10;;
57087;SDS011;42965;52.846;6.614;2023-12-29T09:01:12;23.73;;;3.97;;
57087;SDS011;42965;52.846;6.614;2023-12-29T09:03:58;25.50;;;4.70;;
57087;SDS011;42965;52.846;6.614;2023-12-29T09:06:25;20.48;;;4.20;;
57087;SDS011;42965;52.846;6.614;2023-12-29T09:08:52;23.02;;;5.38;;
57087;SDS011;42965;52.846;6.614;2023-12-29T09:11:18;25.95;;;7.07;;
57087;SDS011;42965;52.846;6.614;2023-12-29T09:13:48;24.35;;;5.05;;
57087;SDS011;42965;52.846;6.614;2023-12-29T09:16:15;22.55;;;5.00;;
57087;SDS011;42965;52.846;6.614;2023-12-29T09:18:41;20.50;;;4.72;;
57087;SDS011;42965;52.846;6.614;2023-12-29T09:21:07;18.80;;;5.40;;
57087;SDS011;42965;52.846;6.614;2023-12-29T09:23:34;18.35;;;5.40;;
57087;SDS011;42965;52.846;6.614;2023-12-29T09:26:03;21.67;;;4.68;;
57087;SDS011;42965;52.846;6.614;2023-12-29T09:28:30;14.05;;;4.38;;
57087;SDS011;42965;52.846;6.614;2023-12-29T09:30:58;17.88;;;5.10;;
57087;SDS011;42965;52.846;6.614;2023-12-29T09:33:26;22.38;;;4.82;;
57087;SDS011;42965;52.846;6.614;2023-12-29T09:35:53;17.85;;;4.60;;
57087;SDS011;42965;52.846;6.614;2023-12-29T09:38:20;18.85;;;4.97;;
57087;SDS011;42965;52.846;6.614;2023-12-29T09:40:46;19.60;;;4.60;;
57087;SDS011;42965;52.846;6.614;2023-12-29T09:43:14;14.05;;;4.13;;
57087;SDS011;42965;52.846;6.614;2023-12-29T09:45:41;14.48;;;3.65;;
57087;SDS011;42965;52.846;6.614;2023-12-29T09:48:10;23.98;;;5.38;;
57087;SDS011;42965;52.846;6.614;2023-12-29T09:50:38;15.35;;;4.68;;
57087;SDS011;42965;52.846;6.614;2023-12-29T09:53:06;15.52;;;4.18;;
57087;SDS011;42965;52.846;6.614;2023-12-29T09:55:34;19.02;;;5.07;;
57087;SDS011;42965;52.846;6.614;2023-12-29T09:58:01;18.75;;;4.78;;
57087;SDS011;42965;52.846;6.614;2023-12-29T10:00:28;19.67;;;4.90;;
57087;SDS011;42965;52.846;6.614;2023-12-29T10:02:55;19.23;;;4.78;;
57087;SDS011;42965;52.846;6.614;2023-12-29T10:05:21;17.90;;;5.22;;
57087;SDS011;42965;52.846;6.614;2023-12-29T10:07:49;14.40;;;4.05;;
57087;SDS011;42965;52.846;6.614;2023-12-29T10:10:18;11.35;;;4.35;;
57087;SDS011;42965;52.846;6.614;2023-12-29T10:13:09;13.70;;;4.45;;
57087;SDS011;42965;52.846;6.614;2023-12-29T10:15:41;15.57;;;3.92;;
57087;SDS011;42965;52.846;6.614;2023-12-29T10:18:14;12.98;;;4.65;;
57087;SDS011;42965;52.846;6.614;2023-12-29T10:20:59;14.60;;;4.50;;
57087;SDS011;42965;52.846;6.614;2023-12-29T10:23:36;15.52;;;4.75;;
57087;SDS011;42965;52.846;6.614;2023-12-29T10:26:11;17.45;;;4.70;;
57087;SDS011;42965;52.846;6.614;2023-12-29T10:28:38;13.05;;;3.72;;
57087;SDS011;42965;52.846;6.614;2023-12-29T10:31:05;11.15;;;3.80;;
57087;SDS011;42965;52.846;6.614;2023-12-29T10:33:31;14.43;;;4.07;;
57087;SDS011;42965;52.846;6.614;2023-12-29T10:35:58;15.90;;;3.53;;
57087;SDS011;42965;52.846;6.614;2023-12-29T10:38:29;13.30;;;3.30;;
57087;SDS011;42965;52.846;6.614;2023-12-29T10:41:14;12.38;;;2.20;;
57087;SDS011;42965;52.846;6.614;2023-12-29T10:43:44;8.40;;;2.40;;
57087;SDS011;42965;52.846;6.614;2023-12-29T10:46:18;7.60;;;1.73;;
57087;SDS011;42965;52.846;6.614;2023-12-29T10:48:44;13.15;;;2.25;;
57087;SDS011;42965;52.846;6.614;2023-12-29T10:51:14;14.20;;;2.72;;
57087;SDS011;42965;52.846;6.614;2023-12-29T10:53:40;12.75;;;2.90;;
57087;SDS011;42965;52.846;6.614;2023-12-29T10:56:16;11.65;;;2.47;;
57087;SDS011;42965;52.846;6.614;2023-12-29T10:58:46;12.50;;;3.28;;
57087;SDS011;42965;52.846;6.614;2023-12-29T11:01:26;10.05;;;2.65;;
57087;SDS011;42965;52.846;6.614;2023-12-29T11:03:59;13.10;;;2.22;;
57087;SDS011;42965;52.846;6.614;2023-12-29T11:06:27;12.52;;;2.22;;
57087;SDS011;42965;52.846;6.614;2023-12-29T11:08:55;12.82;;;2.55;;
57087;SDS011;42965;52.846;6.614;2023-12-29T11:11:21;11.82;;;2.20;;
57087;SDS011;42965;52.846;6.614;2023-12-29T11:13:49;18.38;;;3.10;;
57087;SDS011;42965;52.846;6.614;2023-12-29T11:16:16;10.77;;;2.83;;
57087;SDS011;42965;52.846;6.614;2023-12-29T11:18:44;8.77;;;2.00;;
57087;SDS011;42965;52.846;6.614;2023-12-29T11:21:10;15.30;;;2.85;;
57087;SDS011;42965;52.846;6.614;2023-12-29T11:23:40;18.13;;;2.78;;
57087;SDS011;42965;52.846;6.614;2023-12-29T11:26:09;14.82;;;2.83;;
57087;SDS011;42965;52.846;6.614;2023-12-29T11:28:38;14.32;;;2.75;;
57087;SDS011;42965;52.846;6.614;2023-12-29T11:31:04;14.98;;;2.90;;
57087;SDS011;42965;52.846;6.614;2023-12-29T11:33:33;17.77;;;3.30;;
57087;SDS011;42965;52.846;6.614;2023-12-29T11:41:56;18.80;;;8.50;;
57087;SDS011;42965;52.846;6.614;2023-12-29T11:44:48;19.17;;;3.90;;
57087;SDS011;42965;52.846;6.614;2023-12-29T11:47:34;19.90;;;4.35;;
57087;SDS011;42965;52.846;6.614;2023-12-29T11:50:02;20.95;;;4.20;;
57087;SDS011;42965;52.846;6.614;2023-12-29T11:52:38;15.50;;;3.22;;
57087;SDS011;42965;52.846;6.614;2023-12-29T11:55:14;14.27;;;3.35;;
57087;SDS011;42965;52.846;6.614;2023-12-29T11:57:41;21.00;;;4.18;;
57087;SDS011;42965;52.846;6.614;2023-12-29T12:00:08;14.93;;;3.33;;
57087;SDS011;42965;52.846;6.614;2023-12-29T12:02:38;19.15;;;3.53;;
57087;SDS011;42965;52.846;6.614;2023-12-29T12:05:05;13.18;;;2.85;;
57087;SDS011;42965;52.846;6.614;2023-12-29T12:12:48;18.00;;;2.70;;
57087;SDS011;42965;52.846;6.614;2023-12-29T12:17:59;18.50;;;4.20;;
57087;SDS011;42965;52.846;6.614;2023-12-29T12:23:01;13.90;;;3.00;;
57087;SDS011;42965;52.846;6.614;2023-12-29T12:25:31;18.45;;;3.45;;
57087;SDS011;42965;52.846;6.614;2023-12-29T12:30:48;10.63;;;3.28;;
57087;SDS011;42965;52.846;6.614;2023-12-29T12:33:15;14.73;;;2.78;;
57087;SDS011;42965;52.846;6.614;2023-12-29T12:35:41;11.00;;;2.45;;
57087;SDS011;42965;52.846;6.614;2023-12-29T12:38:16;14.68;;;3.35;;
57087;SDS011;42965;52.846;6.614;2023-12-29T12:40:50;15.13;;;2.78;;
57087;SDS011;42965;52.846;6.614;2023-12-29T12:43:16;11.32;;;2.25;;
57087;SDS011;42965;52.846;6.614;2023-12-29T12:45:53;12.88;;;2.30;;
57087;SDS011;42965;52.846;6.614;2023-12-29T12:48:36;17.10;;;2.75;;
57087;SDS011;42965;52.846;6.614;2023-12-29T12:51:09;16.13;;;3.10;;
57087;SDS011;42965;52.846;6.614;2023-12-29T12:53:41;12.98;;;3.00;;
57087;SDS011;42965;52.846;6.614;2023-12-29T12:56:10;15.10;;;3.30;;
57087;SDS011;42965;52.846;6.614;2023-12-29T12:58:36;15.63;;;2.92;;
57087;SDS011;42965;52.846;6.614;2023-12-29T13:01:03;15.32;;;2.53;;
57087;SDS011;42965;52.846;6.614;2023-12-29T13:03:30;14.52;;;3.03;;
57087;SDS011;42965;52.846;6.614;2023-12-29T13:05:58;21.73;;;3.38;;
57087;SDS011;42965;52.846;6.614;2023-12-29T13:08:25;13.98;;;2.33;;
57087;SDS011;42965;52.846;6.614;2023-12-29T13:10:52;12.65;;;2.70;;
57087;SDS011;42965;52.846;6.614;2023-12-29T13:13:18;15.93;;;2.83;;
57087;SDS011;42965;52.846;6.614;2023-12-29T13:15:48;11.93;;;2.85;;
57087;SDS011;42965;52.846;6.614;2023-12-29T13:18:15;16.65;;;2.50;;
57087;SDS011;42965;52.846;6.614;2023-12-29T13:20:48;15.13;;;2.92;;
57087;SDS011;42965;52.846;6.614;2023-12-29T13:23:15;14.32;;;3.03;;
57087;SDS011;42965;52.846;6.614;2023-12-29T13:25:46;18.13;;;3.10;;
57087;SDS011;42965;52.846;6.614;2023-12-29T13:28:14;14.55;;;2.72;;
57087;SDS011;42965;52.846;6.614;2023-12-29T13:30:41;17.33;;;2.60;;
57087;SDS011;42965;52.846;6.614;2023-12-29T13:33:09;14.27;;;3.60;;
57087;SDS011;42965;52.846;6.614;2023-12-29T13:35:46;15.20;;;3.90;;
57087;SDS011;42965;52.846;6.614;2023-12-29T13:38:20;12.70;;;2.58;;
57087;SDS011;42965;52.846;6.614;2023-12-29T13:40:56;17.33;;;2.75;;
57087;SDS011;42965;52.846;6.614;2023-12-29T13:43:33;17.27;;;3.13;;
57087;SDS011;42965;52.846;6.614;2023-12-29T13:46:02;16.45;;;3.08;;
57087;SDS011;42965;52.846;6.614;2023-12-29T13:48:30;14.55;;;2.70;;
57087;SDS011;42965;52.846;6.614;2023-12-29T13:50:58;14.30;;;2.63;;
57087;SDS011;42965;52.846;6.614;2023-12-29T13:53:25;15.77;;;3.40;;
57087;SDS011;42965;52.846;6.614;2023-12-29T13:55:52;15.35;;;3.35;;
57087;SDS011;42965;52.846;6.614;2023-12-29T13:58:38;20.02;;;3.20;;
57087;SDS011;42965;52.846;6.614;2023-12-29T14:01:06;21.73;;;3.85;;
57087;SDS011;42965;52.846;6.614;2023-12-29T14:03:42;14.77;;;2.67;;
57087;SDS011;42965;52.846;6.614;2023-12-29T14:06:22;13.35;;;3.08;;
57087;SDS011;42965;52.846;6.614;2023-12-29T14:09:02;16.17;;;3.28;;
57087;SDS011;42965;52.846;6.614;2023-12-29T14:11:29;14.82;;;3.30;;
57087;SDS011;42965;52.846;6.614;2023-12-29T14:13:56;17.00;;;3.17;;
57087;SDS011;42965;52.846;6.614;2023-12-29T14:16:22;16.25;;;2.92;;
57087;SDS011;42965;52.846;6.614;2023-12-29T14:18:52;13.70;;;3.63;;
57087;SDS011;42965;52.846;6.614;2023-12-29T14:21:24;15.68;;;3.58;;
57087;SDS011;42965;52.846;6.614;2023-12-29T14:26:39;15.35;;;2.78;;
57087;SDS011;42965;52.846;6.614;2023-12-29T14:29:14;13.05;;;2.78;;
57087;SDS011;42965;52.846;6.614;2023-12-29T14:32:01;21.35;;;4.45;;
57087;SDS011;42965;52.846;6.614;2023-12-29T14:34:27;15.02;;;2.67;;
57087;SDS011;42965;52.846;6.614;2023-12-29T14:36:53;13.90;;;3.00;;
57087;SDS011;42965;52.846;6.614;2023-12-29T14:39:20;14.82;;;2.75;;
57087;SDS011;42965;52.846;6.614;2023-12-29T14:41:46;12.18;;;3.17;;
57087;SDS011;42965;52.846;6.614;2023-12-29T14:44:13;17.45;;;3.45;;
57087;SDS011;42965;52.846;6.614;2023-12-29T14:46:40;14.35;;;2.53;;
57087;SDS011;42965;52.846;6.614;2023-12-29T14:49:09;16.45;;;3.33;;
57087;SDS011;42965;52.846;6.614;2023-12-29T14:51:37;19.27;;;2.72;;
57087;SDS011;42965;52.846;6.614;2023-12-29T14:54:03;12.18;;;2.60;;
57087;SDS011;42965;52.846;6.614;2023-12-29T14:56:29;18.42;;;3.00;;
57087;SDS011;42965;52.846;6.614;2023-12-29T14:58:56;16.27;;;2.97;;
57087;SDS011;42965;52.846;6.614;2023-12-29T15:01:22;22.20;;;4.38;;
57087;SDS011;42965;52.846;6.614;2023-12-29T15:04:08;14.32;;;3.05;;
57087;SDS011;42965;52.846;6.614;2023-12-29T15:06:37;17.92;;;3.20;;
57087;SDS011;42965;52.846;6.614;2023-12-29T15:09:04;18.67;;;2.97;;
57087;SDS011;42965;52.846;6.614;2023-12-29T15:11:31;14.95;;;2.42;;